sensor_id;sensor_type;location;lat;lon;timestamp;temperature;humidity
9389;DHT22;4734;52.778;6.798;2023-11-21T00:01:54;8.80;99.90
9389;DHT22;4734;52.778;6.798;2023-11-21T00:04:39;8.80;99.90
9389;DHT22;4734;52.778;6.798;2023-11-21T00:07:25;8.80;99.90
9389;DHT22;4734;52.778;6.798;2023-11-21T00:10:12;8.80;99.90
9389;DHT22;4734;52.778;6.798;2023-11-21T00:12:59;8.80;99.90
9389;DHT22;4734;52.778;6.798;2023-11-21T00:15:46;8.80;99.90
9389;DHT22;4734;52.778;6.798;2023-11-21T00:18:31;8.80;99.90
9389;DHT22;4734;52.778;6.798;2023-11-21T00:21:17;8.80;99.90
9389;DHT22;4734;52.778;6.798;2023-11-21T00:24:03;8.80;99.90
9389;DHT22;4734;52.778;6.798;2023-11-21T00:26:50;8.80;99.90
9389;DHT22;4734;52.778;6.798;2023-11-21T00:29:36;8.80;99.90
9389;DHT22;4734;52.778;6.798;2023-11-21T00:32:22;8.80;99.90
9389;DHT22;4734;52.778;6.798;2023-11-21T00:35:08;8.80;99.90
9389;DHT22;4734;52.778;6.798;2023-11-21T00:37:54;8.80;99.90
9389;DHT22;4734;52.778;6.798;2023-11-21T00:40:39;8.80;99.90
9389;DHT22;4734;52.778;6.798;2023-11-21T00:43:26;8.80;99.90
9389;DHT22;4734;52.778;6.798;2023-11-21T00:46:11;8.80;99.90
9389;DHT22;4734;52.778;6.798;2023-11-21T00:48:57;8.80;99.90
9389;DHT22;4734;52.778;6.798;2023-11-21T00:51:43;8.80;99.90
9389;DHT22;4734;52.778;6.798;2023-11-21T00:54:28;8.80;99.90
9389;DHT22;4734;52.778;6.798;2023-11-21T00:57:14;8.80;99.90
9389;DHT22;4734;52.778;6.798;2023-11-21T01:00:01;8.80;99.90
9389;DHT22;4734;52.778;6.798;2023-11-21T01:02:51;8.80;99.90
9389;DHT22;4734;52.778;6.798;2023-11-21T01:05:36;8.80;99.90
9389;DHT22;4734;52.778;6.798;2023-11-21T01:08:22;8.80;99.90
9389;DHT22;4734;52.778;6.798;2023-11-21T01:11:08;8.80;99.90
9389;DHT22;4734;52.778;6.798;2023-11-21T01:13:55;8.80;99.90
9389;DHT22;4734;52.778;6.798;2023-11-21T01:16:42;8.80;99.90
9389;DHT22;4734;52.778;6.798;2023-11-21T01:19:28;8.80;99.90
9389;DHT22;4734;52.778;6.798;2023-11-21T01:22:13;8.80;99.90
9389;DHT22;4734;52.778;6.798;2023-11-21T01:25:00;8.80;99.90
9389;DHT22;4734;52.778;6.798;2023-11-21T01:27:48;8.90;99.90
9389;DHT22;4734;52.778;6.798;2023-11-21T01:30:34;8.90;99.90
9389;DHT22;4734;52.778;6.798;2023-11-21T01:33:21;8.80;99.90
9389;DHT22;4734;52.778;6.798;2023-11-21T01:36:07;8.90;99.90
9389;DHT22;4734;52.778;6.798;2023-11-21T01:38:53;8.90;99.90
9389;DHT22;4734;52.778;6.798;2023-11-21T01:41:39;8.90;99.90
9389;DHT22;4734;52.778;6.798;2023-11-21T01:44:24;8.90;99.90
9389;DHT22;4734;52.778;6.798;2023-11-21T01:47:10;8.90;99.90
9389;DHT22;4734;52.778;6.798;2023-11-21T01:49:58;8.90;99.90
9389;DHT22;4734;52.778;6.798;2023-11-21T01:52:46;8.90;99.90
9389;DHT22;4734;52.778;6.798;2023-11-21T01:55:33;8.90;99.90
9389;DHT22;4734;52.778;6.798;2023-11-21T01:58:19;8.90;99.90
9389;DHT22;4734;52.778;6.798;2023-11-21T02:01:06;9.00;99.90
9389;DHT22;4734;52.778;6.798;2023-11-21T02:03:51;9.00;99.90
9389;DHT22;4734;52.778;6.798;2023-11-21T02:06:38;9.00;99.90
9389;DHT22;4734;52.778;6.798;2023-11-21T02:09:25;8.90;99.90
9389;DHT22;4734;52.778;6.798;2023-11-21T02:12:11;9.00;99.90
9389;DHT22;4734;52.778;6.798;2023-11-21T02:14:57;9.00;99.90
9389;DHT22;4734;52.778;6.798;2023-11-21T02:17:43;9.00;99.90
9389;DHT22;4734;52.778;6.798;2023-11-21T02:20:28;9.00;99.90
9389;DHT22;4734;52.778;6.798;2023-11-21T02:23:15;9.00;99.90
9389;DHT22;4734;52.778;6.798;2023-11-21T02:26:01;9.00;99.90
9389;DHT22;4734;52.778;6.798;2023-11-21T02:28:48;9.00;99.90
9389;DHT22;4734;52.778;6.798;2023-11-21T02:31:34;9.00;99.90
9389;DHT22;4734;52.778;6.798;2023-11-21T02:34:21;9.00;99.90
9389;DHT22;4734;52.778;6.798;2023-11-21T02:37:07;9.00;99.90
9389;DHT22;4734;52.778;6.798;2023-11-21T02:39:53;9.00;99.90
9389;DHT22;4734;52.778;6.798;2023-11-21T02:42:39;9.00;99.90
9389;DHT22;4734;52.778;6.798;2023-11-21T02:45:25;9.00;99.90
9389;DHT22;4734;52.778;6.798;2023-11-21T02:48:11;9.00;99.90
9389;DHT22;4734;52.778;6.798;2023-11-21T02:50:56;9.00;99.90
9389;DHT22;4734;52.778;6.798;2023-11-21T02:53:42;9.10;99.90
9389;DHT22;4734;52.778;6.798;2023-11-21T02:56:29;9.00;99.90
9389;DHT22;4734;52.778;6.798;2023-11-21T02:59:14;9.10;99.90
9389;DHT22;4734;52.778;6.798;2023-11-21T03:02:00;9.00;99.90
9389;DHT22;4734;52.778;6.798;2023-11-21T03:04:46;9.00;99.90
9389;DHT22;4734;52.778;6.798;2023-11-21T03:07:32;9.10;99.90
9389;DHT22;4734;52.778;6.798;2023-11-21T03:10:17;9.10;99.90
9389;DHT22;4734;52.778;6.798;2023-11-21T03:13:04;9.10;99.90
9389;DHT22;4734;52.778;6.798;2023-11-21T03:15:50;9.10;99.90
9389;DHT22;4734;52.778;6.798;2023-11-21T03:18:35;9.10;99.90
9389;DHT22;4734;52.778;6.798;2023-11-21T03:21:21;9.10;99.90
9389;DHT22;4734;52.778;6.798;2023-11-21T03:24:07;9.10;99.90
9389;DHT22;4734;52.778;6.798;2023-11-21T03:26:52;9.10;99.90
9389;DHT22;4734;52.778;6.798;2023-11-21T03:29:39;9.10;99.90
9389;DHT22;4734;52.778;6.798;2023-11-21T03:32:25;9.10;99.90
9389;DHT22;4734;52.778;6.798;2023-11-21T03:35:11;9.10;99.90
9389;DHT22;4734;52.778;6.798;2023-11-21T03:37:56;9.10;99.90
9389;DHT22;4734;52.778;6.798;2023-11-21T03:40:42;9.20;99.90
9389;DHT22;4734;52.778;6.798;2023-11-21T03:43:27;9.20;99.90
9389;DHT22;4734;52.778;6.798;2023-11-21T03:46:14;9.10;99.90
9389;DHT22;4734;52.778;6.798;2023-11-21T03:49:00;9.20;99.90
9389;DHT22;4734;52.778;6.798;2023-11-21T03:51:45;9.10;99.90
9389;DHT22;4734;52.778;6.798;2023-11-21T03:54:31;9.20;99.90
9389;DHT22;4734;52.778;6.798;2023-11-21T03:57:16;9.10;99.90
9389;DHT22;4734;52.778;6.798;2023-11-21T04:00:02;9.20;99.90
9389;DHT22;4734;52.778;6.798;2023-11-21T04:02:53;9.20;99.90
9389;DHT22;4734;52.778;6.798;2023-11-21T04:05:39;9.20;99.90
9389;DHT22;4734;52.778;6.798;2023-11-21T04:08:25;9.20;99.90
9389;DHT22;4734;52.778;6.798;2023-11-21T04:11:10;9.20;99.90
9389;DHT22;4734;52.778;6.798;2023-11-21T04:13:57;9.20;99.90
9389;DHT22;4734;52.778;6.798;2023-11-21T04:16:42;9.20;99.90
9389;DHT22;4734;52.778;6.798;2023-11-21T04:19:29;9.20;99.90
9389;DHT22;4734;52.778;6.798;2023-11-21T04:22:15;9.20;99.90
9389;DHT22;4734;52.778;6.798;2023-11-21T04:25:00;9.20;99.90
9389;DHT22;4734;52.778;6.798;2023-11-21T04:27:46;9.20;99.90
9389;DHT22;4734;52.778;6.798;2023-11-21T04:30:31;9.20;99.90
9389;DHT22;4734;52.778;6.798;2023-11-21T04:33:17;9.20;99.90
9389;DHT22;4734;52.778;6.798;2023-11-21T04:36:05;9.20;99.90
9389;DHT22;4734;52.778;6.798;2023-11-21T04:38:51;9.20;99.90
9389;DHT22;4734;52.778;6.798;2023-11-21T04:41:36;9.20;99.90
9389;DHT22;4734;52.778;6.798;2023-11-21T04:44:23;9.20;99.90
9389;DHT22;4734;52.778;6.798;2023-11-21T04:47:09;9.20;99.90
9389;DHT22;4734;52.778;6.798;2023-11-21T04:49:54;9.20;99.90
9389;DHT22;4734;52.778;6.798;2023-11-21T04:52:41;9.20;99.90
9389;DHT22;4734;52.778;6.798;2023-11-21T04:55:27;9.20;99.90
9389;DHT22;4734;52.778;6.798;2023-11-21T04:58:13;9.20;99.90
9389;DHT22;4734;52.778;6.798;2023-11-21T05:00:58;9.20;99.90
9389;DHT22;4734;52.778;6.798;2023-11-21T05:03:44;9.20;99.90
9389;DHT22;4734;52.778;6.798;2023-11-21T05:06:30;9.20;99.90
9389;DHT22;4734;52.778;6.798;2023-11-21T05:09:18;9.20;99.90
9389;DHT22;4734;52.778;6.798;2023-11-21T05:12:03;9.20;99.90
9389;DHT22;4734;52.778;6.798;2023-11-21T05:14:49;9.20;99.90
9389;DHT22;4734;52.778;6.798;2023-11-21T05:17:35;9.20;99.90
9389;DHT22;4734;52.778;6.798;2023-11-21T05:20:20;9.20;99.90
9389;DHT22;4734;52.778;6.798;2023-11-21T05:23:06;9.20;99.90
9389;DHT22;4734;52.778;6.798;2023-11-21T05:25:53;9.10;99.90
9389;DHT22;4734;52.778;6.798;2023-11-21T05:28:38;9.10;99.90
9389;DHT22;4734;52.778;6.798;2023-11-21T05:31:24;9.20;99.90
9389;DHT22;4734;52.778;6.798;2023-11-21T05:34:09;9.20;99.90
9389;DHT22;4734;52.778;6.798;2023-11-21T05:36:55;9.20;99.90
9389;DHT22;4734;52.778;6.798;2023-11-21T05:39:42;9.20;99.90
9389;DHT22;4734;52.778;6.798;2023-11-21T05:42:29;9.20;99.90
9389;DHT22;4734;52.778;6.798;2023-11-21T05:45:15;9.20;99.90
9389;DHT22;4734;52.778;6.798;2023-11-21T05:48:01;9.20;99.90
9389;DHT22;4734;52.778;6.798;2023-11-21T05:50:46;9.20;99.90
9389;DHT22;4734;52.778;6.798;2023-11-21T05:53:32;9.20;99.90
9389;DHT22;4734;52.778;6.798;2023-11-21T05:56:18;9.20;99.90
9389;DHT22;4734;52.778;6.798;2023-11-21T05:59:04;9.20;99.90
9389;DHT22;4734;52.778;6.798;2023-11-21T06:01:50;9.20;99.90
9389;DHT22;4734;52.778;6.798;2023-11-21T06:04:36;9.20;99.90
9389;DHT22;4734;52.778;6.798;2023-11-21T06:07:22;9.20;99.90
9389;DHT22;4734;52.778;6.798;2023-11-21T06:10:08;9.20;99.90
9389;DHT22;4734;52.778;6.798;2023-11-21T06:12:55;9.20;99.90
9389;DHT22;4734;52.778;6.798;2023-11-21T06:15:43;9.20;99.90
9389;DHT22;4734;52.778;6.798;2023-11-21T06:18:28;9.20;99.90
9389;DHT22;4734;52.778;6.798;2023-11-21T06:21:14;9.20;99.90
9389;DHT22;4734;52.778;6.798;2023-11-21T06:24:00;9.20;99.90
9389;DHT22;4734;52.778;6.798;2023-11-21T06:26:46;9.20;99.90
9389;DHT22;4734;52.778;6.798;2023-11-21T06:29:32;9.20;99.90
9389;DHT22;4734;52.778;6.798;2023-11-21T06:32:19;9.20;99.90
9389;DHT22;4734;52.778;6.798;2023-11-21T06:35:07;9.30;99.90
9389;DHT22;4734;52.778;6.798;2023-11-21T06:37:54;9.20;99.90
9389;DHT22;4734;52.778;6.798;2023-11-21T06:40:39;9.20;99.90
9389;DHT22;4734;52.778;6.798;2023-11-21T06:43:25;9.20;99.90
9389;DHT22;4734;52.778;6.798;2023-11-21T06:46:11;9.20;99.90
9389;DHT22;4734;52.778;6.798;2023-11-21T06:49:00;9.30;99.90
9389;DHT22;4734;52.778;6.798;2023-11-21T06:51:45;9.30;99.90
9389;DHT22;4734;52.778;6.798;2023-11-21T06:54:31;9.30;99.90
9389;DHT22;4734;52.778;6.798;2023-11-21T06:57:16;9.30;99.90
9389;DHT22;4734;52.778;6.798;2023-11-21T07:00:03;9.30;99.90
9389;DHT22;4734;52.778;6.798;2023-11-21T07:02:48;9.30;99.90
9389;DHT22;4734;52.778;6.798;2023-11-21T07:05:36;9.30;99.90
9389;DHT22;4734;52.778;6.798;2023-11-21T07:08:21;9.30;99.90
9389;DHT22;4734;52.778;6.798;2023-11-21T07:11:06;9.30;99.90
9389;DHT22;4734;52.778;6.798;2023-11-21T07:13:52;9.30;99.90
9389;DHT22;4734;52.778;6.798;2023-11-21T07:16:38;9.30;99.90
9389;DHT22;4734;52.778;6.798;2023-11-21T07:19:23;9.30;99.90
9389;DHT22;4734;52.778;6.798;2023-11-21T07:22:10;9.30;99.90
9389;DHT22;4734;52.778;6.798;2023-11-21T07:24:56;9.30;99.90
9389;DHT22;4734;52.778;6.798;2023-11-21T07:27:42;9.30;99.90
9389;DHT22;4734;52.778;6.798;2023-11-21T07:30:35;9.30;99.90
9389;DHT22;4734;52.778;6.798;2023-11-21T07:33:34;9.30;99.90
9389;DHT22;4734;52.778;6.798;2023-11-21T07:36:20;9.30;99.90
9389;DHT22;4734;52.778;6.798;2023-11-21T07:39:07;9.30;99.90
9389;DHT22;4734;52.778;6.798;2023-11-21T07:41:52;9.30;99.90
9389;DHT22;4734;52.778;6.798;2023-11-21T07:44:38;9.30;99.90
9389;DHT22;4734;52.778;6.798;2023-11-21T07:47:23;9.40;99.90
9389;DHT22;4734;52.778;6.798;2023-11-21T07:50:10;9.40;99.90
9389;DHT22;4734;52.778;6.798;2023-11-21T07:52:57;9.40;99.90
9389;DHT22;4734;52.778;6.798;2023-11-21T07:55:45;9.40;99.90
9389;DHT22;4734;52.778;6.798;2023-11-21T07:58:31;9.40;99.90
9389;DHT22;4734;52.778;6.798;2023-11-21T08:01:17;9.40;99.90
9389;DHT22;4734;52.778;6.798;2023-11-21T08:04:05;9.40;99.90
9389;DHT22;4734;52.778;6.798;2023-11-21T08:06:55;9.40;99.90
9389;DHT22;4734;52.778;6.798;2023-11-21T08:09:41;9.40;99.90
9389;DHT22;4734;52.778;6.798;2023-11-21T08:12:31;9.40;99.90
9389;DHT22;4734;52.778;6.798;2023-11-21T08:15:20;9.40;99.90
9389;DHT22;4734;52.778;6.798;2023-11-21T08:18:14;9.40;99.90
9389;DHT22;4734;52.778;6.798;2023-11-21T08:21:01;9.40;99.90
9389;DHT22;4734;52.778;6.798;2023-11-21T08:23:54;9.50;99.90
9389;DHT22;4734;52.778;6.798;2023-11-21T08:26:50;9.50;99.90
9389;DHT22;4734;52.778;6.798;2023-11-21T08:29:55;9.50;99.90
9389;DHT22;4734;52.778;6.798;2023-11-21T08:32:47;9.50;99.90
9389;DHT22;4734;52.778;6.798;2023-11-21T08:35:35;9.50;99.90
9389;DHT22;4734;52.778;6.798;2023-11-21T08:38:24;9.60;99.90
9389;DHT22;4734;52.778;6.798;2023-11-21T08:41:13;9.50;99.90
9389;DHT22;4734;52.778;6.798;2023-11-21T08:44:00;9.60;99.90
9389;DHT22;4734;52.778;6.798;2023-11-21T08:46:47;9.60;99.90
9389;DHT22;4734;52.778;6.798;2023-11-21T08:49:33;9.60;99.90
9389;DHT22;4734;52.778;6.798;2023-11-21T08:52:25;9.60;99.90
9389;DHT22;4734;52.778;6.798;2023-11-21T08:55:19;9.60;99.90
9389;DHT22;4734;52.778;6.798;2023-11-21T08:58:08;9.60;99.90
9389;DHT22;4734;52.778;6.798;2023-11-21T09:00:54;9.60;99.90
9389;DHT22;4734;52.778;6.798;2023-11-21T09:03:44;9.70;99.90
9389;DHT22;4734;52.778;6.798;2023-11-21T09:06:34;9.70;99.90
9389;DHT22;4734;52.778;6.798;2023-11-21T09:09:24;9.70;99.90
9389;DHT22;4734;52.778;6.798;2023-11-21T09:12:16;9.70;99.90
9389;DHT22;4734;52.778;6.798;2023-11-21T09:15:04;9.70;99.90
9389;DHT22;4734;52.778;6.798;2023-11-21T09:17:52;9.70;99.90
9389;DHT22;4734;52.778;6.798;2023-11-21T09:20:39;9.70;99.90
9389;DHT22;4734;52.778;6.798;2023-11-21T09:23:25;9.70;99.90
9389;DHT22;4734;52.778;6.798;2023-11-21T09:26:11;9.70;99.90
9389;DHT22;4734;52.778;6.798;2023-11-21T09:28:56;9.70;99.90
9389;DHT22;4734;52.778;6.798;2023-11-21T09:31:42;9.70;99.90
9389;DHT22;4734;52.778;6.798;2023-11-21T09:34:28;9.70;99.90
9389;DHT22;4734;52.778;6.798;2023-11-21T09:37:15;9.70;99.90
9389;DHT22;4734;52.778;6.798;2023-11-21T09:40:00;9.70;99.90
9389;DHT22;4734;52.778;6.798;2023-11-21T09:42:54;9.70;99.90
9389;DHT22;4734;52.778;6.798;2023-11-21T09:45:45;9.70;99.90
9389;DHT22;4734;52.778;6.798;2023-11-21T09:48:32;9.80;99.90
9389;DHT22;4734;52.778;6.798;2023-11-21T09:51:19;9.70;99.90
9389;DHT22;4734;52.778;6.798;2023-11-21T09:54:09;9.70;99.90
9389;DHT22;4734;52.778;6.798;2023-11-21T09:56:55;9.70;99.90
9389;DHT22;4734;52.778;6.798;2023-11-21T09:59:42;9.70;99.90
9389;DHT22;4734;52.778;6.798;2023-11-21T10:02:29;9.80;99.90
9389;DHT22;4734;52.778;6.798;2023-11-21T10:05:15;9.80;99.90
9389;DHT22;4734;52.778;6.798;2023-11-21T10:08:01;9.70;99.90
9389;DHT22;4734;52.778;6.798;2023-11-21T10:10:51;9.70;99.90
9389;DHT22;4734;52.778;6.798;2023-11-21T10:13:39;9.70;99.90
9389;DHT22;4734;52.778;6.798;2023-11-21T10:16:26;9.70;99.90
9389;DHT22;4734;52.778;6.798;2023-11-21T10:19:11;9.70;99.90
9389;DHT22;4734;52.778;6.798;2023-11-21T10:21:57;9.80;99.90
9389;DHT22;4734;52.778;6.798;2023-11-21T10:24:44;9.70;99.90
9389;DHT22;4734;52.778;6.798;2023-11-21T10:27:31;9.80;99.90
9389;DHT22;4734;52.778;6.798;2023-11-21T10:30:17;9.80;99.90
9389;DHT22;4734;52.778;6.798;2023-11-21T10:33:03;9.70;99.90
9389;DHT22;4734;52.778;6.798;2023-11-21T10:35:49;9.80;99.90
9389;DHT22;4734;52.778;6.798;2023-11-21T10:38:42;9.70;99.90
9389;DHT22;4734;52.778;6.798;2023-11-21T10:41:29;9.70;99.90
9389;DHT22;4734;52.778;6.798;2023-11-21T10:44:17;9.80;99.90
9389;DHT22;4734;52.778;6.798;2023-11-21T10:47:05;9.80;99.90
9389;DHT22;4734;52.778;6.798;2023-11-21T10:49:55;9.80;99.90
9389;DHT22;4734;52.778;6.798;2023-11-21T10:52:41;9.70;99.90
9389;DHT22;4734;52.778;6.798;2023-11-21T10:55:31;9.80;99.90
9389;DHT22;4734;52.778;6.798;2023-11-21T10:58:17;9.80;99.90
9389;DHT22;4734;52.778;6.798;2023-11-21T11:01:06;9.80;99.90
9389;DHT22;4734;52.778;6.798;2023-11-21T11:03:52;9.80;99.90
9389;DHT22;4734;52.778;6.798;2023-11-21T11:06:39;9.80;99.90
9389;DHT22;4734;52.778;6.798;2023-11-21T11:09:26;9.80;99.90
9389;DHT22;4734;52.778;6.798;2023-11-21T11:12:12;9.80;99.90
9389;DHT22;4734;52.778;6.798;2023-11-21T11:14:58;9.80;99.90
9389;DHT22;4734;52.778;6.798;2023-11-21T11:17:46;9.80;99.90
9389;DHT22;4734;52.778;6.798;2023-11-21T11:20:36;9.80;99.90
9389;DHT22;4734;52.778;6.798;2023-11-21T11:23:36;9.80;99.90
9389;DHT22;4734;52.778;6.798;2023-11-21T11:26:29;9.80;99.90
9389;DHT22;4734;52.778;6.798;2023-11-21T11:29:25;9.80;99.90
9389;DHT22;4734;52.778;6.798;2023-11-21T11:32:20;9.80;99.90
9389;DHT22;4734;52.778;6.798;2023-11-21T11:35:17;9.80;99.90
9389;DHT22;4734;52.778;6.798;2023-11-21T11:38:04;9.90;99.90
9389;DHT22;4734;52.778;6.798;2023-11-21T11:40:53;9.90;99.90
9389;DHT22;4734;52.778;6.798;2023-11-21T11:43:38;9.90;99.90
9389;DHT22;4734;52.778;6.798;2023-11-21T11:46:42;9.90;99.90
9389;DHT22;4734;52.778;6.798;2023-11-21T11:49:29;9.90;99.90
9389;DHT22;4734;52.778;6.798;2023-11-21T11:52:40;9.90;99.90
9389;DHT22;4734;52.778;6.798;2023-11-21T11:55:26;9.90;99.90
9389;DHT22;4734;52.778;6.798;2023-11-21T11:58:15;9.90;99.90
9389;DHT22;4734;52.778;6.798;2023-11-21T12:01:06;9.90;99.90
9389;DHT22;4734;52.778;6.798;2023-11-21T12:07:18;9.90;99.90
9389;DHT22;4734;52.778;6.798;2023-11-21T12:10:08;9.90;99.90
9389;DHT22;4734;52.778;6.798;2023-11-21T12:12:57;9.90;99.90
9389;DHT22;4734;52.778;6.798;2023-11-21T12:15:43;9.90;99.90
9389;DHT22;4734;52.778;6.798;2023-11-21T12:18:30;9.90;99.90
9389;DHT22;4734;52.778;6.798;2023-11-21T12:21:16;9.90;99.90
9389;DHT22;4734;52.778;6.798;2023-11-21T12:24:01;10.00;99.90
9389;DHT22;4734;52.778;6.798;2023-11-21T12:26:48;10.00;99.90
9389;DHT22;4734;52.778;6.798;2023-11-21T12:29:34;10.00;99.90
9389;DHT22;4734;52.778;6.798;2023-11-21T12:32:22;10.00;99.90
9389;DHT22;4734;52.778;6.798;2023-11-21T12:35:08;10.00;99.90
9389;DHT22;4734;52.778;6.798;2023-11-21T12:37:55;10.00;99.90
9389;DHT22;4734;52.778;6.798;2023-11-21T12:40:41;10.00;99.90
9389;DHT22;4734;52.778;6.798;2023-11-21T12:43:28;10.00;99.90
9389;DHT22;4734;52.778;6.798;2023-11-21T12:46:15;10.00;99.90
9389;DHT22;4734;52.778;6.798;2023-11-21T12:49:01;10.00;99.90
9389;DHT22;4734;52.778;6.798;2023-11-21T12:51:47;10.00;99.90
9389;DHT22;4734;52.778;6.798;2023-11-21T12:54:34;10.00;99.90
9389;DHT22;4734;52.778;6.798;2023-11-21T12:57:19;10.00;99.90
9389;DHT22;4734;52.778;6.798;2023-11-21T13:00:08;10.00;99.90
9389;DHT22;4734;52.778;6.798;2023-11-21T13:02:58;10.00;99.90
9389;DHT22;4734;52.778;6.798;2023-11-21T13:05:45;10.00;99.90
9389;DHT22;4734;52.778;6.798;2023-11-21T13:08:33;10.00;99.90
9389;DHT22;4734;52.778;6.798;2023-11-21T13:11:19;10.00;99.90
9389;DHT22;4734;52.778;6.798;2023-11-21T13:14:04;10.00;99.90
9389;DHT22;4734;52.778;6.798;2023-11-21T13:16:51;10.00;99.90
9389;DHT22;4734;52.778;6.798;2023-11-21T13:19:37;10.00;99.90
9389;DHT22;4734;52.778;6.798;2023-11-21T13:22:23;10.00;99.90
9389;DHT22;4734;52.778;6.798;2023-11-21T13:25:09;10.00;99.90
9389;DHT22;4734;52.778;6.798;2023-11-21T13:27:55;10.00;99.90
9389;DHT22;4734;52.778;6.798;2023-11-21T13:30:40;10.00;99.90
9389;DHT22;4734;52.778;6.798;2023-11-21T13:33:27;10.00;99.90
9389;DHT22;4734;52.778;6.798;2023-11-21T13:36:13;10.00;99.90
9389;DHT22;4734;52.778;6.798;2023-11-21T13:39:06;10.00;99.90
9389;DHT22;4734;52.778;6.798;2023-11-21T13:41:59;10.00;99.90
9389;DHT22;4734;52.778;6.798;2023-11-21T13:44:45;10.00;99.90
9389;DHT22;4734;52.778;6.798;2023-11-21T13:47:33;10.00;99.90
9389;DHT22;4734;52.778;6.798;2023-11-21T13:50:21;10.00;99.90
9389;DHT22;4734;52.778;6.798;2023-11-21T13:53:08;10.00;99.90
9389;DHT22;4734;52.778;6.798;2023-11-21T13:56:02;10.00;99.90
9389;DHT22;4734;52.778;6.798;2023-11-21T13:58:48;10.00;99.90
9389;DHT22;4734;52.778;6.798;2023-11-21T14:01:35;10.00;99.90
9389;DHT22;4734;52.778;6.798;2023-11-21T14:04:40;10.00;99.90
9389;DHT22;4734;52.778;6.798;2023-11-21T14:07:40;10.00;99.90
9389;DHT22;4734;52.778;6.798;2023-11-21T14:10:32;9.90;99.90
9389;DHT22;4734;52.778;6.798;2023-11-21T14:13:24;9.90;99.90
9389;DHT22;4734;52.778;6.798;2023-11-21T14:16:10;9.90;99.90
9389;DHT22;4734;52.778;6.798;2023-11-21T14:18:58;9.90;99.90
9389;DHT22;4734;52.778;6.798;2023-11-21T14:21:49;9.90;99.90
9389;DHT22;4734;52.778;6.798;2023-11-21T14:24:36;9.90;99.90
9389;DHT22;4734;52.778;6.798;2023-11-21T14:27:27;9.90;99.90
9389;DHT22;4734;52.778;6.798;2023-11-21T14:30:13;9.90;99.90
9389;DHT22;4734;52.778;6.798;2023-11-21T14:32:59;9.90;99.90
9389;DHT22;4734;52.778;6.798;2023-11-21T14:35:45;9.90;99.90
9389;DHT22;4734;52.778;6.798;2023-11-21T14:38:31;9.90;99.90
9389;DHT22;4734;52.778;6.798;2023-11-21T14:41:18;9.90;99.90
9389;DHT22;4734;52.778;6.798;2023-11-21T14:44:04;9.90;99.90
9389;DHT22;4734;52.778;6.798;2023-11-21T14:46:54;9.90;99.90
9389;DHT22;4734;52.778;6.798;2023-11-21T14:49:41;9.90;99.90
9389;DHT22;4734;52.778;6.798;2023-11-21T14:52:36;9.90;99.90
9389;DHT22;4734;52.778;6.798;2023-11-21T14:55:35;9.90;99.90
9389;DHT22;4734;52.778;6.798;2023-11-21T14:58:26;9.90;99.90
9389;DHT22;4734;52.778;6.798;2023-11-21T15:01:12;9.90;99.90
9389;DHT22;4734;52.778;6.798;2023-11-21T15:03:57;9.90;99.90
9389;DHT22;4734;52.778;6.798;2023-11-21T15:06:43;9.90;99.90
9389;DHT22;4734;52.778;6.798;2023-11-21T15:09:28;9.90;99.90
9389;DHT22;4734;52.778;6.798;2023-11-21T15:12:20;9.90;99.90
9389;DHT22;4734;52.778;6.798;2023-11-21T15:15:11;9.90;99.90
9389;DHT22;4734;52.778;6.798;2023-11-21T15:17:58;9.80;99.90
9389;DHT22;4734;52.778;6.798;2023-11-21T15:20:43;9.80;99.90
9389;DHT22;4734;52.778;6.798;2023-11-21T15:23:29;9.80;99.90
9389;DHT22;4734;52.778;6.798;2023-11-21T15:26:19;9.80;99.90
9389;DHT22;4734;52.778;6.798;2023-11-21T15:29:06;9.70;99.90
9389;DHT22;4734;52.778;6.798;2023-11-21T15:31:53;9.70;99.90
9389;DHT22;4734;52.778;6.798;2023-11-21T15:34:40;9.70;99.90
9389;DHT22;4734;52.778;6.798;2023-11-21T15:37:26;9.70;99.90
9389;DHT22;4734;52.778;6.798;2023-11-21T15:40:12;9.70;99.90
9389;DHT22;4734;52.778;6.798;2023-11-21T15:43:00;9.70;99.90
9389;DHT22;4734;52.778;6.798;2023-11-21T15:45:47;9.60;99.90
9389;DHT22;4734;52.778;6.798;2023-11-21T15:48:34;9.60;99.90
9389;DHT22;4734;52.778;6.798;2023-11-21T15:51:20;9.60;99.90
9389;DHT22;4734;52.778;6.798;2023-11-21T15:54:06;9.60;99.90
9389;DHT22;4734;52.778;6.798;2023-11-21T15:56:52;9.50;99.90
9389;DHT22;4734;52.778;6.798;2023-11-21T15:59:40;9.50;99.90
9389;DHT22;4734;52.778;6.798;2023-11-21T16:02:26;9.50;99.90
9389;DHT22;4734;52.778;6.798;2023-11-21T16:05:15;9.50;99.90
9389;DHT22;4734;52.778;6.798;2023-11-21T16:08:01;9.50;99.90
9389;DHT22;4734;52.778;6.798;2023-11-21T16:10:46;9.40;99.90
9389;DHT22;4734;52.778;6.798;2023-11-21T16:13:32;9.40;99.90
9389;DHT22;4734;52.778;6.798;2023-11-21T16:16:21;9.40;99.90
9389;DHT22;4734;52.778;6.798;2023-11-21T16:19:07;9.30;99.90
9389;DHT22;4734;52.778;6.798;2023-11-21T16:21:54;9.30;99.90
9389;DHT22;4734;52.778;6.798;2023-11-21T16:24:40;9.20;99.90
9389;DHT22;4734;52.778;6.798;2023-11-21T16:27:26;9.20;99.90
9389;DHT22;4734;52.778;6.798;2023-11-21T16:30:12;9.10;99.90
9389;DHT22;4734;52.778;6.798;2023-11-21T16:32:57;9.10;99.90
9389;DHT22;4734;52.778;6.798;2023-11-21T16:35:43;9.00;99.90
9389;DHT22;4734;52.778;6.798;2023-11-21T16:38:33;9.00;99.90
9389;DHT22;4734;52.778;6.798;2023-11-21T16:41:18;9.00;99.90
9389;DHT22;4734;52.778;6.798;2023-11-21T16:44:04;8.90;99.90
9389;DHT22;4734;52.778;6.798;2023-11-21T16:46:51;8.80;99.90
9389;DHT22;4734;52.778;6.798;2023-11-21T16:49:37;8.80;99.90
9389;DHT22;4734;52.778;6.798;2023-11-21T16:52:24;8.80;99.90
9389;DHT22;4734;52.778;6.798;2023-11-21T16:55:12;8.70;99.90
9389;DHT22;4734;52.778;6.798;2023-11-21T16:57:59;8.70;99.90
9389;DHT22;4734;52.778;6.798;2023-11-21T17:00:45;8.70;99.90
9389;DHT22;4734;52.778;6.798;2023-11-21T17:03:31;8.60;99.90
9389;DHT22;4734;52.778;6.798;2023-11-21T17:06:16;8.60;99.90
9389;DHT22;4734;52.778;6.798;2023-11-21T17:09:02;8.60;99.90
9389;DHT22;4734;52.778;6.798;2023-11-21T17:11:50;8.50;99.90
9389;DHT22;4734;52.778;6.798;2023-11-21T17:14:36;8.50;99.90
9389;DHT22;4734;52.778;6.798;2023-11-21T17:17:23;8.50;99.90
9389;DHT22;4734;52.778;6.798;2023-11-21T17:20:09;8.50;99.90
9389;DHT22;4734;52.778;6.798;2023-11-21T17:22:55;8.40;99.90
9389;DHT22;4734;52.778;6.798;2023-11-21T17:25:40;8.40;99.90
9389;DHT22;4734;52.778;6.798;2023-11-21T17:28:27;8.30;99.90
9389;DHT22;4734;52.778;6.798;2023-11-21T17:31:13;8.30;99.90
9389;DHT22;4734;52.778;6.798;2023-11-21T17:33:59;8.30;99.90
9389;DHT22;4734;52.778;6.798;2023-11-21T17:36:45;8.20;99.90
9389;DHT22;4734;52.778;6.798;2023-11-21T17:39:30;8.10;99.90
9389;DHT22;4734;52.778;6.798;2023-11-21T17:42:16;8.10;99.90
9389;DHT22;4734;52.778;6.798;2023-11-21T17:45:03;8.10;99.90
9389;DHT22;4734;52.778;6.798;2023-11-21T17:47:49;8.00;99.90
9389;DHT22;4734;52.778;6.798;2023-11-21T17:50:34;8.00;99.90
9389;DHT22;4734;52.778;6.798;2023-11-21T17:53:20;7.90;99.90
9389;DHT22;4734;52.778;6.798;2023-11-21T17:56:06;7.90;99.90
9389;DHT22;4734;52.778;6.798;2023-11-21T17:58:58;7.90;99.90
9389;DHT22;4734;52.778;6.798;2023-11-21T18:01:46;7.80;99.90
9389;DHT22;4734;52.778;6.798;2023-11-21T18:04:32;7.80;99.90
9389;DHT22;4734;52.778;6.798;2023-11-21T18:07:19;7.80;99.90
9389;DHT22;4734;52.778;6.798;2023-11-21T18:10:06;7.70;99.90
9389;DHT22;4734;52.778;6.798;2023-11-21T18:12:51;7.70;99.90
9389;DHT22;4734;52.778;6.798;2023-11-21T18:15:38;7.70;99.90
9389;DHT22;4734;52.778;6.798;2023-11-21T18:18:25;7.70;99.90
9389;DHT22;4734;52.778;6.798;2023-11-21T18:21:11;7.60;99.90
9389;DHT22;4734;52.778;6.798;2023-11-21T18:23:57;7.60;99.90
9389;DHT22;4734;52.778;6.798;2023-11-21T18:26:42;7.60;99.90
9389;DHT22;4734;52.778;6.798;2023-11-21T18:29:28;7.60;99.90
9389;DHT22;4734;52.778;6.798;2023-11-21T18:32:14;7.60;99.90